Terminal Aerodrome Forecast
Issued by NWS Springfield, MO

Home | Current Version | Previous Version | Text Only | Print | Product List | Glossary On
Versions: 1 2 3 4 5 6 7 8 9 10 11 12 13 14 15 16 17 18 19 20 21 22 23 24 25 26 27 28 29 30 31 32 33 34 35
854
FTUS43 KSGF 260520
TAFSGF
TAF
KSGF 260520Z 2606/2706 17011KT P6SM VCSH BKN035
      TEMPO 2607/2611 4SM TSRA OVC025CB
     FM261100 28008KT 4SM SHRA VCTS OVC010CB
     FM261500 32009KT 2SM SHRA OVC010
     FM261800 34011KT 2SM SHRA VCTS OVC010CB
     FM270100 32007KT 4SM -SHRA OVC008
     FM270300 31008KT P6SM -SHRA OVC015=

USA.gov is the U.S. government's official web portal to all federal, state and local government web resources and services.